Centennial Airport Denver US
ICAO: KAPA
IATA: APA
Category: Medium
Scheduled Services: No

Elevation: 5885 ft
TransAlt. 18000 ft.

Airport Communications:
DENVER APP/DEP:132.75
ATIS:120.3
CLNC DEL:128.6
GND:121.8
DENVER RDO:122.2
TWR:118.9
UNICOM:122.95

KAPA Zoom In..

Runways:

(A) RW 10 length 4800 ft width 75 ft
---- / hdg 100

(B) RW 17L length 10001 ft width 100 ft
---- / hdg 167

(C) RW 17R length 7000 ft width 77 ft
---- / hdg 167

(D) RW 28 length 4800 ft width 75 ft
---- / hdg 280

(E) RW 35L length 7000 ft width 77 ft
---- / hdg 347

(F) RW 35R length 10001 ft width 100 ft
ILS 111.30 / hdg 347

Location; KAPA
Day. 24 / Time. 01.53 Zulu
* Altimeter: 30.24
* Temperature: -03° c. -26.6°f.
* Wind from: 160° Speed 08 kn.
Dewpoint: -12° c.
Visibility: 10 Statute Miles.
Clouds: Few 9000 ft.

KAPA 240153Z 16008KT 10SM FEW090 M03/M12 A3024 RMK AO2 SLP293 T10331122 PNO


Wind From 160°
Speed 08 kn.

YouTube Music Video
 
jpsmedia.com for Web Design  worldairports.se 2018   terms of use